createdAt,value
2023-05-09T00:01:34.339Z,17.72
2023-05-09T00:04:00.617Z,17.66
2023-05-09T00:06:26.838Z,17.71
2023-05-09T00:08:53.140Z,17.71
2023-05-09T00:11:19.409Z,17.70
2023-05-09T00:13:45.733Z,17.72
2023-05-09T00:16:12.022Z,17.62
2023-05-09T00:18:38.300Z,17.66
2023-05-09T00:21:04.551Z,17.71
2023-05-09T00:23:30.992Z,17.67
2023-05-09T00:25:57.218Z,17.72
2023-05-09T00:28:23.482Z,17.60
2023-05-09T00:30:49.718Z,17.60
2023-05-09T00:33:15.972Z,17.71
2023-05-09T00:35:42.489Z,17.70
2023-05-09T00:38:08.802Z,17.75
2023-05-09T00:40:35.176Z,17.63
2023-05-09T00:43:01.466Z,17.67
2023-05-09T00:45:27.735Z,17.63
2023-05-09T00:47:54.047Z,17.65
2023-05-09T00:50:20.386Z,17.68
2023-05-09T00:52:46.610Z,17.65
2023-05-09T00:55:13.003Z,17.68
2023-05-09T00:57:39.427Z,17.65
2023-05-09T01:00:05.668Z,17.61
2023-05-09T01:02:31.979Z,17.61
2023-05-09T01:04:58.358Z,17.69
2023-05-09T01:07:24.610Z,17.64
2023-05-09T01:09:50.895Z,17.56
2023-05-09T01:12:17.122Z,17.61
2023-05-09T01:14:43.375Z,17.61
2023-05-09T01:17:09.642Z,17.55
2023-05-09T01:19:35.897Z,17.54
2023-05-09T01:22:02.201Z,17.55
2023-05-09T01:24:28.432Z,17.60
2023-05-09T01:26:54.683Z,17.55
2023-05-09T01:29:21.018Z,17.59
2023-05-09T01:31:47.468Z,17.61
2023-05-09T01:34:13.891Z,17.66
2023-05-09T01:36:40.123Z,17.59
2023-05-09T01:39:06.445Z,17.60
2023-05-09T01:41:32.754Z,17.67
2023-05-09T01:43:58.996Z,17.70
2023-05-09T01:46:25.336Z,17.59
2023-05-09T01:48:51.609Z,17.60
2023-05-09T01:51:17.906Z,17.61
2023-05-09T01:53:44.148Z,17.63
2023-05-09T01:56:10.409Z,17.58
2023-05-09T01:58:36.648Z,17.62
2023-05-09T02:01:03.095Z,17.61
2023-05-09T02:03:29.620Z,17.56
2023-05-09T02:05:55.949Z,17.53
2023-05-09T02:08:22.325Z,17.55
2023-05-09T02:10:48.859Z,17.54
2023-05-09T02:13:15.225Z,17.52
2023-05-09T02:15:41.577Z,17.60
2023-05-09T02:18:07.844Z,17.56
2023-05-09T02:20:34.060Z,17.53
2023-05-09T02:23:00.328Z,17.58
2023-05-09T02:25:26.557Z,17.54
2023-05-09T02:27:52.786Z,17.54
2023-05-09T02:30:19.058Z,17.55
2023-05-09T02:32:45.371Z,17.54
2023-05-09T02:35:11.716Z,17.56
2023-05-09T02:37:37.983Z,17.53
2023-05-09T02:40:04.250Z,17.59
2023-05-09T02:42:30.557Z,17.60
2023-05-09T02:44:56.990Z,17.60
2023-05-09T02:47:23.301Z,17.65
2023-05-09T02:49:49.544Z,17.67
2023-05-09T02:52:15.818Z,17.59
2023-05-09T02:54:42.047Z,17.61
2023-05-09T02:57:08.367Z,17.58
2023-05-09T02:59:34.595Z,17.58
2023-05-09T03:02:00.890Z,17.58
2023-05-09T03:04:27.138Z,17.52
2023-05-09T03:06:53.463Z,17.61
2023-05-09T03:09:19.715Z,17.57
2023-05-09T03:11:45.957Z,17.57
2023-05-09T03:14:12.213Z,17.56
2023-05-09T03:16:38.472Z,17.61
2023-05-09T03:19:04.747Z,17.54
2023-05-09T03:21:31.124Z,17.52
2023-05-09T03:23:57.369Z,17.56
2023-05-09T03:26:23.580Z,17.53
2023-05-09T03:28:49.933Z,17.50
2023-05-09T03:31:16.357Z,17.51
2023-05-09T03:33:42.668Z,17.54
2023-05-09T03:36:09.008Z,17.56
2023-05-09T03:38:35.264Z,17.50
2023-05-09T03:41:01.565Z,17.54
2023-05-09T03:43:27.795Z,17.55
2023-05-09T03:45:54.050Z,17.54
2023-05-09T03:48:20.309Z,17.47
2023-05-09T03:50:46.625Z,17.49
2023-05-09T03:53:12.898Z,17.44
2023-05-09T03:55:39.167Z,17.45
2023-05-09T03:58:05.430Z,17.45
2023-05-09T04:00:31.702Z,17.46
2023-05-09T04:02:58.013Z,17.45
2023-05-09T04:05:24.342Z,17.44
2023-05-09T04:07:50.642Z,17.46
2023-05-09T04:10:16.870Z,17.42
2023-05-09T04:12:43.105Z,17.45
2023-05-09T04:15:09.423Z,17.42
2023-05-09T04:17:35.806Z,17.40
2023-05-09T04:20:02.294Z,17.39
2023-05-09T04:22:28.690Z,17.37
2023-05-09T04:24:55.409Z,17.37
2023-05-09T04:27:21.644Z,17.39
2023-05-09T04:29:47.909Z,17.38
2023-05-09T04:32:14.170Z,17.38
2023-05-09T04:34:40.437Z,17.37
2023-05-09T04:37:06.682Z,17.36
2023-05-09T04:39:33.047Z,17.36
2023-05-09T04:41:59.262Z,17.37
2023-05-09T04:44:25.520Z,17.39
2023-05-09T04:46:51.749Z,17.36
2023-05-09T04:49:17.978Z,17.35
2023-05-09T04:51:44.218Z,17.34
2023-05-09T04:54:10.440Z,17.33
2023-05-09T04:56:37.074Z,17.38
2023-05-09T04:59:03.505Z,17.39
2023-05-09T05:01:29.792Z,17.36
2023-05-09T05:03:56.049Z,17.38
2023-05-09T05:06:22.316Z,17.37
2023-05-09T05:08:48.598Z,17.38
2023-05-09T05:11:15.120Z,17.37
2023-05-09T05:13:41.367Z,17.35
2023-05-09T05:16:07.696Z,17.38
2023-05-09T05:18:33.998Z,17.36
2023-05-09T05:21:00.302Z,17.37
2023-05-09T05:23:26.807Z,17.36
2023-05-09T05:25:53.199Z,17.38
2023-05-09T05:28:19.450Z,17.39
2023-05-09T05:30:45.693Z,17.39
2023-05-09T05:33:11.945Z,17.36
2023-05-09T05:35:38.287Z,17.36
2023-05-09T05:38:04.521Z,17.40
2023-05-09T05:40:30.777Z,17.33
2023-05-09T05:42:56.989Z,17.24
2023-05-09T05:45:23.239Z,17.29
2023-05-09T05:47:49.592Z,17.32
2023-05-09T05:50:16.540Z,17.34
2023-05-09T05:52:43.023Z,17.35
2023-05-09T05:55:09.319Z,17.32
2023-05-09T05:57:35.684Z,17.28
2023-05-09T06:00:01.958Z,17.33
2023-05-09T06:02:28.828Z,17.37
2023-05-09T06:04:56.179Z,17.36
2023-05-09T06:07:22.572Z,17.36
2023-05-09T06:09:49.608Z,17.35
2023-05-09T06:12:15.849Z,17.31
2023-05-09T06:14:42.063Z,17.33
2023-05-09T06:17:08.404Z,17.33
2023-05-09T06:19:34.697Z,17.31
2023-05-09T06:22:00.937Z,17.32
2023-05-09T06:24:35.625Z,17.32
2023-05-09T06:27:02.534Z,17.29
2023-05-09T06:29:28.765Z,17.29
2023-05-09T06:31:55.072Z,17.29
2023-05-09T06:34:21.363Z,17.29
2023-05-09T06:36:47.661Z,17.29
2023-05-09T06:39:14.003Z,17.27
2023-05-09T06:41:40.254Z,17.28
2023-05-09T06:44:06.475Z,17.25
2023-05-09T06:46:32.747Z,17.23
2023-05-09T06:48:59.129Z,17.22
2023-05-09T06:51:25.358Z,17.20
2023-05-09T06:53:51.612Z,17.20
2023-05-09T06:56:19.924Z,17.16
2023-05-09T06:58:46.333Z,17.15
2023-05-09T07:01:12.577Z,17.16
2023-05-09T07:03:38.835Z,17.16
2023-05-09T07:06:05.091Z,17.16
2023-05-09T07:08:31.364Z,17.16
2023-05-09T07:10:57.597Z,17.19
2023-05-09T07:13:23.904Z,17.18
2023-05-09T07:15:50.213Z,17.16
2023-05-09T07:18:16.466Z,17.18
2023-05-09T07:20:42.809Z,17.20
2023-05-09T07:23:09.136Z,17.19
2023-05-09T07:25:35.380Z,17.19
2023-05-09T07:28:01.629Z,17.19
2023-05-09T07:30:27.907Z,17.20
2023-05-09T07:32:54.215Z,17.19
2023-05-09T07:35:20.485Z,17.19
2023-05-09T07:37:46.817Z,17.19
2023-05-09T07:40:13.446Z,17.20
2023-05-09T07:42:39.852Z,17.17
2023-05-09T07:45:06.363Z,17.16
2023-05-09T07:47:32.611Z,17.18
2023-05-09T07:49:58.867Z,17.18
2023-05-09T07:52:25.131Z,17.19
2023-05-09T07:54:51.446Z,17.19
2023-05-09T07:57:18.021Z,17.18
2023-05-09T07:59:44.357Z,17.16
2023-05-09T08:02:10.697Z,17.18
2023-05-09T08:04:37.011Z,17.20
2023-05-09T08:07:03.662Z,17.19
2023-05-09T08:09:30.004Z,17.19
2023-05-09T08:11:56.301Z,17.19
2023-05-09T08:14:22.534Z,17.19
2023-05-09T08:16:48.772Z,17.20
2023-05-09T08:19:15.045Z,17.22
2023-05-09T08:21:41.389Z,17.22
2023-05-09T08:24:07.786Z,17.22
2023-05-09T08:26:34.077Z,17.22
2023-05-09T08:29:00.305Z,17.21
2023-05-09T08:31:26.651Z,17.22
2023-05-09T08:33:52.982Z,17.22
2023-05-09T08:36:19.306Z,17.22
2023-05-09T08:38:45.537Z,17.19
2023-05-09T08:41:11.931Z,17.20
2023-05-09T08:43:38.164Z,17.21
2023-05-09T08:46:04.567Z,17.20
2023-05-09T08:48:30.877Z,17.20
2023-05-09T08:50:57.211Z,17.21
2023-05-09T08:53:23.506Z,17.22
2023-05-09T08:55:49.762Z,17.19
2023-05-09T08:58:16.003Z,17.18
2023-05-09T09:00:42.257Z,17.19
2023-05-09T09:03:08.556Z,17.18
2023-05-09T09:08:06.068Z,17.18
2023-05-09T09:10:32.323Z,17.20
2023-05-09T09:12:58.711Z,17.17
2023-05-09T09:15:25.065Z,17.17
2023-05-09T09:17:51.408Z,17.19
2023-05-09T09:20:17.765Z,17.19
2023-05-09T09:22:44.050Z,17.18
2023-05-09T09:25:10.722Z,17.17
2023-05-09T09:27:37.148Z,17.20
2023-05-09T09:30:03.371Z,17.17
2023-05-09T09:32:29.642Z,17.17
2023-05-09T09:34:55.916Z,17.16
2023-05-09T09:37:22.172Z,17.16
2023-05-09T09:39:48.384Z,17.18
2023-05-09T09:42:14.736Z,17.17
2023-05-09T09:44:41.036Z,17.17
2023-05-09T09:47:07.253Z,17.16
2023-05-09T09:49:33.519Z,17.18
2023-05-09T09:51:59.781Z,17.19
2023-05-09T09:54:26.080Z,17.18
2023-05-09T09:56:52.332Z,17.17
2023-05-09T09:59:18.564Z,17.18
2023-05-09T10:01:44.863Z,17.18
2023-05-09T10:04:11.129Z,17.18
2023-05-09T10:06:37.403Z,17.19
2023-05-09T10:09:03.658Z,17.20
2023-05-09T10:11:29.935Z,17.20
2023-05-09T10:13:56.256Z,17.18
2023-05-09T10:16:35.699Z,17.19
2023-05-09T10:19:06.430Z,17.19
2023-05-09T10:21:32.738Z,17.19
2023-05-09T10:23:59.049Z,17.20
2023-05-09T10:26:25.264Z,17.19
2023-05-09T10:28:51.514Z,17.18
2023-05-09T10:31:17.839Z,17.19
2023-05-09T10:33:44.094Z,17.20
2023-05-09T10:36:10.306Z,17.17
2023-05-09T10:38:36.586Z,17.18
2023-05-09T10:41:02.916Z,17.17
2023-05-09T10:43:29.480Z,17.18
2023-05-09T10:45:55.837Z,17.17
2023-05-09T10:48:22.110Z,17.16
2023-05-09T10:50:48.386Z,17.17
2023-05-09T10:53:14.636Z,17.18
2023-05-09T10:55:40.972Z,17.16
2023-05-09T10:58:07.244Z,17.18
2023-05-09T11:00:33.711Z,17.21
2023-05-09T11:03:00.069Z,17.19
2023-05-09T11:05:26.392Z,17.19
2023-05-09T11:07:52.650Z,17.19
2023-05-09T11:10:18.977Z,17.19
2023-05-09T11:12:45.275Z,17.19
2023-05-09T11:15:11.645Z,17.19
2023-05-09T11:17:37.998Z,17.20
2023-05-09T11:20:04.286Z,17.21
2023-05-09T11:22:30.646Z,17.21
2023-05-09T11:24:57.034Z,17.20
2023-05-09T11:27:23.286Z,17.21
2023-05-09T11:29:49.584Z,17.19
2023-05-09T11:32:15.892Z,17.21
2023-05-09T11:34:42.194Z,17.20
2023-05-09T11:37:08.424Z,17.19
2023-05-09T11:39:37.378Z,17.21
2023-05-09T11:42:03.601Z,17.19
2023-05-09T11:44:29.880Z,17.19
2023-05-09T11:46:56.142Z,17.19
2023-05-09T11:49:22.439Z,17.21
2023-05-09T11:51:48.706Z,17.22
2023-05-09T11:54:15.147Z,17.21
2023-05-09T11:56:41.562Z,17.21
2023-05-09T11:59:07.903Z,17.20
2023-05-09T12:01:34.185Z,17.21
2023-05-09T12:04:00.600Z,17.22
2023-05-09T12:06:27.268Z,17.21
2023-05-09T12:08:53.488Z,17.21
2023-05-09T12:11:19.781Z,17.21
2023-05-09T12:13:46.023Z,17.21
2023-05-09T12:16:12.285Z,17.21
2023-05-09T12:18:38.582Z,17.20
2023-05-09T12:21:04.843Z,17.20
2023-05-09T12:23:31.107Z,17.20
2023-05-09T12:25:58.559Z,17.21
2023-05-09T12:28:24.793Z,17.21
2023-05-09T12:30:51.069Z,17.20
2023-05-09T12:33:17.327Z,17.19
2023-05-09T12:35:43.666Z,17.19
2023-05-09T12:38:10.043Z,17.18
2023-05-09T12:40:36.272Z,17.18
2023-05-09T12:43:02.588Z,17.17
2023-05-09T12:45:29.118Z,17.17
2023-05-09T12:47:56.103Z,17.17
2023-05-09T12:50:22.526Z,17.16
2023-05-09T12:53:02.848Z,17.15
2023-05-09T12:55:30.784Z,17.16
2023-05-09T12:57:57.132Z,17.14
2023-05-09T13:00:23.694Z,17.16
2023-05-09T13:02:50.042Z,17.15
2023-05-09T13:05:17.250Z,17.15
2023-05-09T13:07:44.121Z,17.14
2023-05-09T13:10:11.934Z,17.14
2023-05-09T13:12:39.611Z,17.14
2023-05-09T13:15:05.860Z,17.15
2023-05-09T13:17:32.312Z,17.15
2023-05-09T13:20:00.222Z,17.14
2023-05-09T13:22:27.178Z,17.15
2023-05-09T13:24:53.549Z,17.14
2023-05-09T13:27:19.824Z,17.16
2023-05-09T13:29:46.332Z,17.15
2023-05-09T13:32:12.610Z,17.15
2023-05-09T13:34:39.012Z,17.16
2023-05-09T13:37:05.240Z,17.16
2023-05-09T13:39:31.692Z,17.15
2023-05-09T13:41:57.946Z,17.16
2023-05-09T13:44:24.177Z,17.15
2023-05-09T13:46:50.681Z,17.15
2023-05-09T13:49:16.973Z,17.15
2023-05-09T13:51:43.263Z,17.16
2023-05-09T13:54:10.454Z,17.15
2023-05-09T13:56:37.064Z,17.15
2023-05-09T13:59:03.369Z,17.15
2023-05-09T14:01:29.729Z,17.15
2023-05-09T14:03:56.204Z,17.15
2023-05-09T14:06:22.708Z,17.15
2023-05-09T14:08:49.548Z,17.16
2023-05-09T14:11:16.676Z,17.16
2023-05-09T14:13:42.914Z,17.16
2023-05-09T14:16:09.205Z,17.16
2023-05-09T14:18:35.494Z,17.16
2023-05-09T14:21:01.890Z,17.16
2023-05-09T14:23:28.128Z,17.17
2023-05-09T14:25:54.370Z,17.17
2023-05-09T14:28:21.585Z,17.18
2023-05-09T14:30:47.898Z,17.17
2023-05-09T14:33:14.217Z,17.17
2023-05-09T14:35:41.630Z,17.18
2023-05-09T14:38:08.103Z,17.19
2023-05-09T14:40:36.183Z,17.17
2023-05-09T14:43:02.922Z,17.17
2023-05-09T14:45:29.287Z,17.18
2023-05-09T14:47:55.547Z,17.19
2023-05-09T14:50:21.931Z,17.18
2023-05-09T14:52:49.876Z,17.20
2023-05-09T14:55:16.196Z,17.20
2023-05-09T14:57:42.463Z,17.20
2023-05-09T15:00:20.398Z,17.21
2023-05-09T15:02:47.899Z,17.20
2023-05-09T15:05:14.186Z,17.20
2023-05-09T15:07:40.671Z,17.22
2023-05-09T15:10:06.964Z,17.22
2023-05-09T15:12:33.231Z,17.22
2023-05-09T15:14:59.498Z,17.21
2023-05-09T15:17:25.803Z,17.22
2023-05-09T15:19:52.932Z,17.23
2023-05-09T15:22:22.124Z,17.23
2023-05-09T15:24:48.872Z,17.23
2023-05-09T15:27:15.114Z,17.24
2023-05-09T15:29:41.897Z,17.25
2023-05-09T15:32:08.442Z,17.25
2023-05-09T15:34:34.710Z,17.26
2023-05-09T15:37:00.966Z,17.26
2023-05-09T15:39:27.207Z,17.26
2023-05-09T15:41:53.536Z,17.26
2023-05-09T15:44:19.883Z,17.27
2023-05-09T15:46:46.196Z,17.27
2023-05-09T15:49:13.068Z,17.27
2023-05-09T15:51:39.330Z,17.28
2023-05-09T15:54:05.573Z,17.29
2023-05-09T15:56:32.750Z,17.28
2023-05-09T15:59:00.234Z,17.28
2023-05-09T16:01:26.593Z,17.29
2023-05-09T16:03:53.140Z,17.31
2023-05-09T16:06:19.499Z,17.29
2023-05-09T16:08:45.834Z,17.30
2023-05-09T16:11:13.497Z,17.31
2023-05-09T16:13:39.846Z,17.30
2023-05-09T16:16:06.129Z,17.30
2023-05-09T16:18:32.541Z,17.31
2023-05-09T16:20:58.801Z,17.33
2023-05-09T16:23:25.072Z,17.34
2023-05-09T16:25:51.319Z,17.36
2023-05-09T16:28:17.578Z,17.34
2023-05-09T16:30:43.884Z,17.35
2023-05-09T16:33:12.153Z,17.29
2023-05-09T16:35:38.398Z,17.64
2023-05-09T16:38:04.802Z,17.56
2023-05-09T16:40:31.553Z,17.55
2023-05-09T16:42:57.942Z,17.58
2023-05-09T16:45:24.226Z,17.57
2023-05-09T16:47:50.523Z,17.74
2023-05-09T16:50:17.772Z,17.67
2023-05-09T16:52:44.131Z,17.67
2023-05-09T16:55:10.456Z,17.71
2023-05-09T16:57:36.777Z,17.71
2023-05-09T17:00:03.825Z,17.77
2023-05-09T17:02:30.152Z,17.79
2023-05-09T17:04:57.436Z,17.82
2023-05-09T17:07:23.755Z,17.83
2023-05-09T17:09:50.031Z,17.85
2023-05-09T17:12:16.292Z,17.86
2023-05-09T17:14:42.549Z,17.89
2023-05-09T17:17:08.808Z,17.90
2023-05-09T17:19:35.184Z,17.90
2023-05-09T17:22:01.421Z,17.89
2023-05-09T17:24:27.677Z,17.89
2023-05-09T17:26:55.383Z,17.88
2023-05-09T17:32:12.302Z,17.88
2023-05-09T17:34:38.574Z,17.85
2023-05-09T17:37:04.867Z,17.84
2023-05-09T17:39:31.152Z,17.87
2023-05-09T17:41:57.505Z,17.85
2023-05-09T17:44:23.774Z,17.85
2023-05-09T17:46:50.017Z,17.84
2023-05-09T17:49:16.370Z,17.84
2023-05-09T17:51:43.240Z,17.82
2023-05-09T17:54:09.525Z,17.84
2023-05-09T17:56:35.773Z,17.83
2023-05-09T17:59:02.026Z,17.83
2023-05-09T18:01:28.401Z,17.79
2023-05-09T18:03:54.735Z,17.82
2023-05-09T18:06:21.110Z,17.80
2023-05-09T18:08:47.368Z,17.82
2023-05-09T18:11:13.665Z,17.80
2023-05-09T18:13:39.929Z,17.81
2023-05-09T18:16:06.244Z,17.83
2023-05-09T18:18:32.498Z,17.83
2023-05-09T18:20:58.813Z,17.82
2023-05-09T18:23:25.087Z,17.81
2023-05-09T18:25:52.202Z,17.82
2023-05-09T18:28:19.122Z,17.82
2023-05-09T18:30:45.471Z,17.83
2023-05-09T18:33:12.138Z,17.83
2023-05-09T18:35:38.417Z,17.81
2023-05-09T18:38:04.662Z,17.82
2023-05-09T18:40:31.468Z,17.84
2023-05-09T18:42:57.737Z,17.83
2023-05-09T18:45:23.983Z,17.82
2023-05-09T18:47:50.333Z,17.85
2023-05-09T18:50:16.827Z,17.86
2023-05-09T18:52:43.273Z,17.82
2023-05-09T18:55:09.507Z,17.83
2023-05-09T18:57:35.906Z,17.90
2023-05-09T19:00:02.191Z,17.96
2023-05-09T19:02:28.589Z,18.04
2023-05-09T19:04:54.814Z,18.11
2023-05-09T19:07:21.094Z,18.19
2023-05-09T19:09:47.338Z,18.27
2023-05-09T19:12:13.610Z,18.38
2023-05-09T19:14:40.190Z,18.45
2023-05-09T19:17:06.511Z,18.52
2023-05-09T19:19:32.842Z,18.60
2023-05-09T19:21:59.095Z,18.67
2023-05-09T19:24:25.341Z,18.74
2023-05-09T19:26:51.621Z,18.80
2023-05-09T19:29:18.009Z,18.83
2023-05-09T19:31:44.470Z,18.85
2023-05-09T19:34:10.857Z,18.89
2023-05-09T19:36:37.089Z,18.92
2023-05-09T19:39:03.862Z,18.95
2023-05-09T19:41:30.108Z,18.97
2023-05-09T19:43:56.381Z,19.02
2023-05-09T19:46:22.790Z,19.02
2023-05-09T19:48:49.420Z,19.06
2023-05-09T19:51:15.666Z,19.08
2023-05-09T19:53:41.941Z,19.07
2023-05-09T19:56:08.461Z,19.10
2023-05-09T19:58:35.960Z,19.16
2023-05-09T20:01:02.249Z,19.22
2023-05-09T20:03:28.564Z,19.27
2023-05-09T20:05:54.840Z,19.32
2023-05-09T20:08:22.398Z,19.40
2023-05-09T20:10:48.944Z,19.44
2023-05-09T20:13:15.278Z,19.51
2023-05-09T20:15:41.561Z,19.56
2023-05-09T20:18:07.821Z,19.62
2023-05-09T20:20:34.126Z,19.68
2023-05-09T20:23:00.412Z,19.71
2023-05-09T20:25:26.686Z,19.76
2023-05-09T20:27:53.128Z,19.82
2023-05-09T20:30:19.386Z,19.85
2023-05-09T20:32:45.708Z,19.89
2023-05-09T20:35:11.989Z,19.92
2023-05-09T20:37:38.326Z,19.95
2023-05-09T20:40:04.569Z,19.99
2023-05-09T20:42:30.907Z,20.02
2023-05-09T20:44:57.229Z,20.05
2023-05-09T20:47:23.568Z,20.08
2023-05-09T20:49:49.860Z,20.10
2023-05-09T20:52:16.141Z,20.14
2023-05-09T20:54:42.434Z,20.16
2023-05-09T20:57:10.149Z,20.19
2023-05-09T20:59:36.455Z,20.23
2023-05-09T21:02:02.868Z,20.24
2023-05-09T21:04:29.264Z,20.27
2023-05-09T21:06:55.496Z,20.28
2023-05-09T21:09:21.753Z,20.31
2023-05-09T21:11:48.007Z,20.33
2023-05-09T21:14:14.238Z,20.33
2023-05-09T21:16:40.601Z,20.35
2023-05-09T21:19:06.940Z,20.36
2023-05-09T21:21:33.183Z,20.37
2023-05-09T21:23:59.514Z,20.35
2023-05-09T21:26:26.063Z,20.34
2023-05-09T21:28:52.496Z,20.31
2023-05-09T21:31:18.762Z,20.29
2023-05-09T21:33:45.030Z,20.28
2023-05-09T21:36:11.352Z,20.26
2023-05-09T21:38:37.670Z,20.26
2023-05-09T21:41:03.938Z,20.24
2023-05-09T21:43:30.185Z,20.23
2023-05-09T21:45:56.452Z,20.22
2023-05-09T21:48:22.744Z,20.21
2023-05-09T21:50:49.011Z,20.22
2023-05-09T21:53:15.636Z,20.22
2023-05-09T21:55:41.870Z,20.21
2023-05-09T21:58:08.120Z,20.17
2023-05-09T22:00:34.437Z,20.14
2023-05-09T22:03:01.138Z,20.11
2023-05-09T22:05:27.925Z,20.07
2023-05-09T22:07:54.172Z,20.03
2023-05-09T22:10:20.500Z,19.99
2023-05-09T22:12:46.889Z,19.96
2023-05-09T22:15:13.253Z,19.91
2023-05-09T22:17:40.312Z,19.87
2023-05-09T22:20:06.619Z,19.86
2023-05-09T22:22:32.869Z,19.83
2023-05-09T22:24:59.152Z,19.82
2023-05-09T22:27:25.590Z,19.79
2023-05-09T22:29:51.889Z,19.76
2023-05-09T22:32:18.205Z,19.74
2023-05-09T22:34:44.451Z,19.73
2023-05-09T22:37:10.735Z,19.71
2023-05-09T22:39:37.244Z,19.69
2023-05-09T22:42:03.998Z,19.69
2023-05-09T22:44:30.314Z,19.67
2023-05-09T22:46:56.597Z,19.65
2023-05-09T22:49:22.830Z,19.63
2023-05-09T22:51:49.175Z,19.63
2023-05-09T22:54:15.420Z,19.60
2023-05-09T22:56:41.793Z,19.57
2023-05-09T22:59:08.038Z,19.57
2023-05-09T23:01:34.356Z,19.56
2023-05-09T23:04:01.058Z,19.54
2023-05-09T23:06:27.367Z,19.54
2023-05-09T23:08:54.162Z,19.51
2023-05-09T23:11:20.510Z,19.50
2023-05-09T23:13:46.917Z,19.48
2023-05-09T23:16:13.226Z,19.47
2023-05-09T23:18:39.518Z,19.46
2023-05-09T23:21:05.872Z,19.43
2023-05-09T23:23:32.160Z,19.41
2023-05-09T23:25:58.472Z,19.41
2023-05-09T23:28:24.831Z,19.40
2023-05-09T23:30:51.615Z,19.41
2023-05-09T23:33:17.911Z,19.38
2023-05-09T23:35:44.558Z,19.39
2023-05-09T23:38:12.913Z,19.36
2023-05-09T23:40:39.190Z,19.35
2023-05-09T23:43:05.480Z,19.33
2023-05-09T23:45:31.831Z,19.33
2023-05-09T23:47:58.186Z,19.31
2023-05-09T23:50:24.574Z,19.29
2023-05-09T23:52:50.821Z,19.28
2023-05-09T23:55:17.116Z,19.27
2023-05-09T23:57:45.208Z,19.25
